Delmar, NY (12054)

5:26 AM EDT on August 31, 2015 (GMT -0400)
Kenholm | | Change Station
CLOSE
Current Station
Personal Weather Station
Location: Delmar, NY
Elevation: 213 ft
Nearby Weather Stations

Elev 213 ft 42.62 °N, 73.81 °W | Updated 12 days ago

Fog
Fog
69 °F
Feels Like 69 °F
N
1
Wind Variable Wind from WSW
Gusts mph

Today
High -- | Low -- °F
--% Chance of Precip.
Yesterday
High -- | Low -- °F
Precip. -- in
6:19 AM 7:31 PM
Waning Gibbous, 96% visible
Pressure 30.00 in
Visibility 9.0 miles
Clouds Few 26000 ft
Dew Point 65 °F
Humidity 87%
Rainfall in
Snow Depth Not available.
UV 0 out of 12
Pollen 9.20 out of 12
Air Quality Not available.
Flu Activity Not available.
METAR KALB 310851Z 00000KT 9SM MIFG FEW260 18/17 A3000 RMK AO2 SLP158 MIFG S T01830172 55005 $
Pressure 30.00 in
Visibility 9.0 miles
Clouds Few 26000 ft
Dew Point 65 °F
Humidity 87%
Rainfall in
Snow Depth Not available.
UV 0 out of 12
Pollen 9.20 out of 12
Air Quality Not available.
Flu Activity Not available.
METAR KALB 310851Z 00000KT 9SM MIFG FEW260 18/17 A3000 RMK AO2 SLP158 MIFG S T01830172 55005 $

10-Day Weather Forecast

×

Almanac

Astronomy

Aug. 31, 2015 Rise Set
Actual Time
Civil Twilight
Nautical Twilight
Astronomical Twilight
Moon
Length of Visible Light
Length of Day
Tomorrow will be .
, % of the Moon is Illuminated

Today's Extremes

State Highs State Lows

Community

WunderPhotos

Upload Photos

1,851,227 photos uploaded!

WunderBlogs® & News

Nearby

Air Quality

  Air Quality AQ Index Pollutant
Not available.

Snow Depth

Station Depth Elevation

Earthquake Activity

City Distance Mag. Time & Date
Minimum magnitude displayed is 2.5.

Coastal Water Temperatures

Place Temperature

Stations

Nearby Weather Stations

Station Location Temp. Windchill Dew Point Humidity Wind Precip. Elev Updated Type